Time;durP1;ratioP1;P1;durP2;ratioP2;P2;SDS_P1;SDS_P2;PMS_P1;PMS_P2;Temp;Humidity;BMP_temperature;BMP_pressure;BME280_temperature;BME280_humidity;BME280_pressure;Samples;Min_cycle;Max_cycle;Signal;HPM_P1;HPM_P2
2021/11/02 00:01:29;;;;;;;36.68;22.52;;;;;;;8.83;100.00;99944.88;1732653;83;21314;-76
2021/11/02 00:04:34;;;;;;;38.33;23.52;;;;;;;8.84;100.00;99934.82;1732396;81;21212;-76
2021/11/02 00:07:39;;;;;;;39.15;22.05;;;;;;;8.85;100.00;99929.22;1733788;82;21902;-76
2021/11/02 00:10:46;;;;;;;36.90;22.95;;;;;;;8.87;100.00;99929.03;1733850;82;21343;-76
2021/11/02 00:13:55;;;;;;;37.15;22.27;;;;;;;8.87;100.00;99935.33;1732467;82;21883;-76
2021/11/02 00:20:24;;;;;;;35.90;21.50;;;;;;;8.87;100.00;99918.12;1732955;82;21330;-76
2021/11/02 00:23:40;;;;;;;38.48;24.40;;;;;;;8.89;100.00;99922.88;1734429;82;22589;-76
2021/11/02 00:26:38;;;;;;;39.23;25.17;;;;;;;8.90;100.00;99917.78;1734415;82;21161;-76
2021/11/02 00:29:43;;;;;;;41.13;25.08;;;;;;;8.90;100.00;99904.98;1732478;82;21303;-76
2021/11/02 00:32:50;;;;;;;37.35;22.80;;;;;;;8.91;100.00;99898.50;1734041;82;21295;-76
2021/11/02 00:35:56;;;;;;;36.90;22.87;;;;;;;8.93;100.00;99903.25;1734386;82;21283;-76
2021/11/02 00:39:02;;;;;;;37.95;22.67;;;;;;;8.94;100.00;99895.95;1733153;82;21335;-76
2021/11/02 00:42:07;;;;;;;37.75;23.57;;;;;;;8.95;100.00;99901.22;1733893;82;21291;-76
2021/11/02 00:45:30;;;;;;;45.95;24.57;;;;;;;8.97;100.00;99901.03;1733976;82;21343;-76
2021/11/02 00:48:28;;;;;;;32.55;21.25;;;;;;;8.99;100.00;99884.00;1733918;83;21268;-76
2021/11/02 00:51:34;;;;;;;39.98;23.87;;;;;;;8.98;100.00;99878.17;1734026;82;21756;-76
2021/11/02 00:54:40;;;;;;;28.40;18.82;;;;;;;8.99;100.00;99876.30;1733068;82;21698;-76
2021/11/02 00:57:47;;;;;;;31.45;19.30;;;;;;;8.99;100.00;99858.56;1733835;82;21298;-76
2021/11/02 01:00:53;;;;;;;35.92;21.45;;;;;;;8.98;100.00;99848.69;1732390;82;21355;-76
2021/11/02 01:04:04;;;;;;;38.33;22.80;;;;;;;8.96;100.00;99838.81;1732334;81;21362;-76
2021/11/02 01:07:07;;;;;;;31.30;19.73;;;;;;;8.95;100.00;99833.02;1732293;83;21165;-76
2021/11/02 01:10:18;;;;;;;38.90;22.20;;;;;;;8.93;100.00;99836.94;1730934;82;21343;-75
2021/11/02 01:13:21;;;;;;;33.88;22.37;;;;;;;8.91;100.00;99841.74;1732360;83;21279;-75
2021/11/02 01:16:27;;;;;;;36.23;23.40;;;;;;;8.89;100.00;99839.69;1731289;83;21185;-75
2021/11/02 01:19:32;;;;;;;37.73;24.00;;;;;;;8.88;100.00;99838.84;1734291;82;21271;-75
2021/11/02 01:22:38;;;;;;;41.83;25.15;;;;;;;8.87;100.00;99837.66;1733719;83;21740;-75
2021/11/02 01:25:46;;;;;;;40.20;24.60;;;;;;;8.86;100.00;99838.70;1732609;82;21319;-75
2021/11/02 01:28:51;;;;;;;37.67;23.00;;;;;;;8.84;100.00;99839.37;1732784;82;21343;-76
2021/11/02 01:31:58;;;;;;;32.50;22.42;;;;;;;8.83;100.00;99832.22;1733971;82;21197;-75
2021/11/02 01:35:06;;;;;;;33.50;21.65;;;;;;;8.82;100.00;99820.46;1734460;82;21633;-75
2021/11/02 01:38:20;;;;;;;34.40;21.87;;;;;;;8.80;100.00;99810.74;1734207;82;21217;-75
2021/11/02 01:41:25;;;;;;;33.50;21.65;;;;;;;8.78;100.00;99800.02;1730647;82;21260;-75
2021/11/02 01:44:30;;;;;;;37.30;23.80;;;;;;;8.77;100.00;99806.52;1733216;82;21310;-75
2021/11/02 01:47:36;;;;;;;39.38;23.30;;;;;;;8.74;100.00;99799.19;1731083;83;21303;-75
2021/11/02 01:50:42;;;;;;;34.95;22.20;;;;;;;8.71;100.00;99799.05;1733111;82;21340;-75
2021/11/02 01:53:48;;;;;;;34.90;21.27;;;;;;;8.69;100.00;99799.20;1732373;82;21343;-75
2021/11/02 01:56:54;;;;;;;34.20;21.27;;;;;;;8.68;100.00;99789.84;1733819;82;21229;-75
2021/11/02 02:00:00;;;;;;;40.20;20.82;;;;;;;8.68;100.00;99783.03;1733477;82;21302;-75
2021/11/02 02:03:41;;;;;;;33.08;20.43;;;;;;;8.68;100.00;99785.23;1732541;82;21299;-75
2021/11/02 02:07:13;;;;;;;31.00;21.15;;;;;;;8.70;100.00;99785.05;1732817;81;21842;-75
2021/11/02 02:10:35;;;;;;;36.50;19.57;;;;;;;8.72;100.00;99777.56;1733558;82;21299;-76
2021/11/02 02:13:51;;;;;;;;;;;;;;;8.75;100.00;99777.22;1735383;82;21180;-75
2021/11/02 02:16:57;;;;;;;32.38;21.37;;;;;;;8.77;100.00;99773.79;1734059;83;20275;-76
2021/11/02 02:20:06;;;;;;;36.68;22.22;;;;;;;8.81;100.00;99780.59;1734012;82;21280;-75
2021/11/02 02:23:28;;;;;;;31.57;19.82;;;;;;;8.86;100.00;99761.81;1734322;82;21252;-75
2021/11/02 02:26:47;;;;;;;31.93;22.05;;;;;;;8.93;100.00;99765.51;1732891;82;21197;-75
2021/11/02 02:29:52;;;;;;;33.98;20.05;;;;;;;8.99;100.00;99771.27;1734083;82;21303;-75
2021/11/02 02:32:59;;;;;;;24.77;16.75;;;;;;;9.03;100.00;99775.34;1734100;82;21296;-75
2021/11/02 02:36:04;;;;;;;33.92;20.72;;;;;;;9.06;100.00;99780.45;1732779;82;21354;-75
2021/11/02 02:39:20;;;;;;;38.23;22.10;;;;;;;9.09;100.00;99777.38;1732615;82;21200;-75
2021/11/02 02:42:29;;;;;;;31.15;18.80;;;;;;;9.12;100.00;99783.82;1732978;82;21332;-75
2021/11/02 02:45:35;;;;;;;38.02;23.12;;;;;;;9.15;100.00;99778.02;1734061;82;21732;-75
2021/11/02 02:48:41;;;;;;;34.58;21.82;;;;;;;9.15;100.00;99772.55;1734051;82;21311;-75
2021/11/02 02:51:50;;;;;;;34.03;21.68;;;;;;;9.19;100.00;99780.72;1733345;82;21336;-75
2021/11/02 02:54:55;;;;;;;33.92;22.95;;;;;;;9.20;100.00;99775.08;1734019;82;21816;-75
2021/11/02 02:58:01;;;;;;;29.50;21.48;;;;;;;9.25;100.00;99770.95;1734049;82;21311;-75
2021/11/02 03:01:07;;;;;;;33.00;20.43;;;;;;;9.26;100.00;99763.95;1733063;82;21265;-75
2021/11/02 03:04:23;;;;;;;36.48;22.40;;;;;;;9.30;100.00;99773.98;1734007;82;21303;-75
2021/11/02 03:07:30;;;;;;;29.80;19.57;;;;;;;9.32;100.00;99774.67;1732947;81;21295;-75
2021/11/02 03:10:36;;;;;;;35.20;21.48;;;;;;;9.34;100.00;99772.60;1732355;83;21709;-74
2021/11/02 03:13:44;;;;;;;30.00;20.30;;;;;;;9.36;100.00;99772.77;1733865;82;21306;-75
2021/11/02 03:16:57;;;;;;;31.77;19.92;;;;;;;9.38;100.00;99771.21;1733782;83;21338;-75
2021/11/02 03:20:41;;;;;;;24.98;18.50;;;;;;;9.39;100.00;99771.02;1734465;82;21344;-75
2021/11/02 03:44:03;;;;;;;34.67;21.10;;;;;;;9.48;100.00;99752.70;1721368;82;21715;-75
2021/11/02 05:59:54;;;;;;;30.12;19.85;;;;;;;9.64;100.00;99703.92;1754980;80;21288;-75
2021/11/02 06:09:48;;;;;;;;;;;;;;;9.64;100.00;99708.02;1702749;82;21181;-76
2021/11/02 06:23:41;;;;;;;32.67;22.13;;;;;;;9.65;100.00;99699.66;1726153;80;21308;-76
2021/11/02 06:29:58;;;;;;;31.90;22.60;;;;;;;9.66;100.00;99702.72;1755117;80;21873;-74
2021/11/02 06:33:16;;;;;;;33.58;23.15;;;;;;;9.65;100.00;99686.01;1764829;81;21153;-75
2021/11/02 06:36:47;;;;;;;31.97;23.27;;;;;;;9.64;100.00;99684.81;1746903;79;21316;-76
2021/11/02 06:46:35;;;;;;;35.78;24.47;;;;;;;9.60;100.00;99678.89;1763497;80;21296;-76
2021/11/02 06:56:23;;;;;;;38.38;26.35;;;;;;;9.57;100.00;99671.58;1719565;81;21193;-76
2021/11/02 06:59:57;;;;;;;42.33;28.55;;;;;;;9.56;100.00;99670.73;1761974;80;21969;-75
2021/11/02 07:20:15;;;;;;;44.38;31.12;;;;;;;9.60;100.00;99682.98;1757967;81;21280;-76
2021/11/02 07:23:25;;;;;;;44.98;31.42;;;;;;;9.62;100.00;99681.43;1755908;79;21340;-76
2021/11/02 08:47:39;;;;;;;43.00;28.62;;;;;;;9.86;100.00;99660.69;1758591;80;21281;-75
2021/11/02 08:50:49;;;;;;;40.70;28.12;;;;;;;9.87;100.00;99659.64;1757860;80;21618;-75
2021/11/02 08:53:52;;;;;;;38.77;27.77;;;;;;;9.88;100.00;99664.59;1763236;79;21355;-75
2021/11/02 08:56:58;;;;;;;44.65;29.10;;;;;;;9.88;100.00;99662.73;1753028;80;21893;-76
2021/11/02 09:00:04;;;;;;;44.55;29.00;;;;;;;9.89;100.00;99661.69;1768743;79;21366;-76
2021/11/02 09:03:27;;;;;;;49.95;30.90;;;;;;;9.89;100.00;99657.59;1754278;81;21221;-76
2021/11/02 09:06:36;;;;;;;65.97;36.88;;;;;;;9.91;100.00;99657.39;1756644;79;21355;-76
2021/11/02 09:09:44;;;;;;;61.98;37.98;;;;;;;9.93;100.00;99652.61;1757437;80;21295;-76
2021/11/02 09:12:53;;;;;;;71.92;38.17;;;;;;;9.96;100.00;99657.16;1758894;80;21378;-76
2021/11/02 09:15:58;;;;;;;82.12;44.70;;;;;;;9.97;100.00;99653.41;1754034;79;21319;-76
2021/11/02 09:19:04;;;;;;;69.87;39.92;;;;;;;9.99;100.00;99650.48;1755027;80;21299;-76
2021/11/02 09:22:16;;;;;;;68.00;36.50;;;;;;;9.99;100.00;99644.49;1755080;80;21283;-76
2021/11/02 09:25:23;;;;;;;43.73;28.92;;;;;;;10.01;100.00;99648.91;1755698;80;21182;-76
2021/11/02 09:28:31;;;;;;;38.58;25.12;;;;;;;9.99;100.00;99648.59;1750383;81;21272;-76
2021/11/02 09:31:36;;;;;;;36.68;23.92;;;;;;;9.98;100.00;99636.50;1758467;80;21666;-76
2021/11/02 09:34:42;;;;;;;32.50;20.37;;;;;;;9.98;100.00;99637.86;1762345;80;21303;-77
2021/11/02 09:38:12;;;;;;;29.75;20.00;;;;;;;9.98;100.00;99636.50;1760990;79;21796;-74
2021/11/02 09:41:48;;;;;;;23.32;17.20;;;;;;;9.98;100.00;99630.52;1757202;80;22642;-75
2021/11/02 09:45:12;;;;;;;27.45;17.95;;;;;;;9.99;100.00;99632.20;1754490;81;21515;-75
2021/11/02 09:48:41;;;;;;;24.23;15.95;;;;;;;10.03;100.00;99637.30;1762719;79;21154;-75
2021/11/02 09:52:27;;;;;;;21.57;15.08;;;;;;;10.04;100.00;99634.89;1772229;79;22576;-75
2021/11/02 09:55:49;;;;;;;22.17;15.23;;;;;;;10.05;100.00;99636.05;1739439;81;21336;-75
2021/11/02 09:59:16;;;;;;;22.52;14.63;;;;;;;10.05;100.00;99631.11;1762283;80;21801;-76
2021/11/02 10:02:43;;;;;;;29.72;17.55;;;;;;;10.06;100.00;99625.97;1756310;80;21296;-75
2021/11/02 10:06:09;;;;;;;26.05;17.50;;;;;;;10.06;100.00;99623.23;1755130;80;21225;-76
2021/11/02 10:09:28;;;;;;;30.02;16.93;;;;;;;10.03;100.00;99623.64;1759127;80;21209;-77
2021/11/02 10:12:58;;;;;;;25.70;16.10;;;;;;;10.03;100.00;99622.27;1774573;79;21173;-75
2021/11/02 10:16:13;;;;;;;27.50;17.25;;;;;;;10.04;100.00;99615.76;1763164;80;21606;-75
2021/11/02 10:20:03;;;;;;;36.48;20.85;;;;;;;10.05;100.00;99625.64;1759773;80;21201;-74
2021/11/02 10:23:36;;;;;;;28.77;18.00;;;;;;;10.05;100.00;99621.02;1760138;81;21186;-75
2021/11/02 10:27:05;;;;;;;34.73;20.32;;;;;;;10.06;100.00;99619.14;1765713;80;21328;-75
2021/11/02 10:30:34;;;;;;;40.45;22.13;;;;;;;10.06;100.00;99622.72;1756296;81;21328;-75
2021/11/02 10:33:39;;;;;;;44.23;23.12;;;;;;;10.04;100.00;99613.03;1762157;80;21949;-75
2021/11/02 10:37:00;;;;;;;;;;;;;;;10.03;100.00;99614.92;1761635;79;21330;-75
2021/11/02 10:40:34;;;;;;;45.65;23.95;;;;;;;10.03;100.00;99609.97;1757126;81;20245;-75
2021/11/02 10:44:02;;;;;;;42.60;22.65;;;;;;;10.01;100.00;99608.78;1769099;80;21284;-76
2021/11/02 10:47:19;;;;;;;39.75;21.55;;;;;;;9.98;100.00;99604.55;1766469;81;21364;-75
2021/11/02 10:50:24;;;;;;;52.15;27.37;;;;;;;9.98;100.00;99604.55;1757429;80;21370;-76
2021/11/02 10:53:43;;;;;;;44.25;22.32;;;;;;;9.99;100.00;99596.69;1768074;80;21305;-76
2021/11/02 10:57:22;;;;;;;57.03;26.93;;;;;;;10.03;100.00;99586.75;1759325;81;21307;-75
2021/11/02 11:00:29;;;;;;;49.10;24.60;;;;;;;10.08;100.00;99578.83;1767650;79;22007;-74
2021/11/02 11:03:36;;;;;;;44.65;23.77;;;;;;;10.09;100.00;99584.61;1766941;80;21320;-74
2021/11/02 11:06:42;;;;;;;51.00;25.82;;;;;;;10.10;100.00;99585.78;1766910;81;21336;-74
2021/11/02 11:09:48;;;;;;;53.48;26.17;;;;;;;10.13;100.00;99580.47;1758256;81;21819;-74
2021/11/02 11:13:03;;;;;;;58.68;28.67;;;;;;;10.17;100.00;99569.48;1761913;81;21323;-75
2021/11/02 11:16:18;;;;;;;56.55;28.15;;;;;;;10.19;100.00;99568.23;1752936;80;21292;-75
2021/11/02 11:19:35;;;;;;;61.48;26.27;;;;;;;10.24;100.00;99574.52;1760609;81;21336;-75
2021/11/02 11:22:50;;;;;;;57.83;29.02;;;;;;;10.29;100.00;99571.22;1763546;81;21315;-75
2021/11/02 11:26:05;;;;;;;50.75;25.97;;;;;;;10.33;100.00;99568.43;1763812;81;21300;-75
2021/11/02 11:29:11;;;;;;;53.17;26.85;;;;;;;10.35;100.00;99567.21;1767539;81;21355;-75
2021/11/02 11:32:17;;;;;;;60.78;28.98;;;;;;;10.38;100.00;99564.07;1738574;82;21257;-74
2021/11/02 11:35:22;;;;;;;62.03;28.85;;;;;;;10.41;100.00;99563.70;1745420;81;21150;-75
2021/11/02 11:38:28;;;;;;;57.95;28.20;;;;;;;10.45;100.00;99561.43;1766267;81;21474;-75
2021/11/02 11:41:38;;;;;;;65.22;30.45;;;;;;;10.48;100.00;99559.66;1765145;81;21700;-76
2021/11/02 11:44:43;;;;;;;61.98;30.52;;;;;;;10.48;100.00;99563.23;1764454;81;21585;-75
2021/11/02 11:47:50;;;;;;;62.88;29.42;;;;;;;10.50;100.00;99565.80;1767100;81;21173;-75
2021/11/02 11:50:58;;;;;;;51.90;24.00;;;;;;;10.51;100.00;99563.91;1753528;81;21840;-75
2021/11/02 11:54:13;;;;;;;62.43;29.60;;;;;;;10.51;100.00;99562.53;1765771;81;21354;-75
2021/11/02 11:57:20;;;;;;;58.05;28.15;;;;;;;10.53;100.00;99563.17;1766996;81;21343;-75
2021/11/02 12:00:26;;;;;;;67.10;28.07;;;;;;;10.53;100.00;99559.91;1743683;81;21209;-76
2021/11/02 12:04:03;;;;;;;44.48;22.60;;;;;;;10.54;100.00;99558.02;1747839;81;21279;-75
2021/11/02 12:07:31;;;;;;;48.55;22.55;;;;;;;10.54;100.00;99563.00;1769082;80;21296;-75
2021/11/02 12:10:37;;;;;;;32.90;18.35;;;;;;;10.57;100.00;99557.13;1763364;81;21293;-76
2021/11/02 12:13:49;;;;;;;31.35;17.67;;;;;;;10.58;100.00;99560.70;1768527;81;21323;-75
2021/11/02 12:16:54;;;;;;;34.18;17.73;;;;;;;10.58;100.00;99553.34;1752813;81;21263;-76
2021/11/02 12:20:16;;;;;;;28.00;15.15;;;;;;;10.60;100.00;99557.27;1768183;80;21307;-76
2021/11/02 12:23:26;;;;;;;29.10;15.85;;;;;;;10.62;100.00;99556.54;1766910;80;21301;-75
2021/11/02 12:26:31;;;;;;;25.23;12.85;;;;;;;10.63;100.00;99554.13;1766591;81;21298;-75
2021/11/02 12:29:37;;;;;;;23.20;13.58;;;;;;;10.64;100.00;99553.95;1752642;80;21189;-75
2021/11/02 12:32:52;;;;;;;19.20;11.65;;;;;;;10.66;100.00;99551.01;1768065;80;21233;-75
2021/11/02 12:35:58;;;;;;;15.03;8.75;;;;;;;10.66;100.00;99553.75;1751471;80;21788;-77
2021/11/02 12:39:12;;;;;;;15.93;9.05;;;;;;;10.68;100.00;99548.42;1733734;81;21163;-77
2021/11/02 12:42:20;;;;;;;22.90;11.48;;;;;;;10.70;100.00;99550.42;1750530;80;21630;-74
2021/11/02 12:45:26;;;;;;;18.90;11.43;;;;;;;10.72;100.00;99560.63;1702523;82;21681;-74
2021/11/02 12:48:31;;;;;;;21.68;12.78;;;;;;;10.72;100.00;99561.16;1683077;83;21876;-74
2021/11/02 12:51:45;;;;;;;27.37;14.70;;;;;;;10.74;100.00;99565.93;1706708;83;21348;-74
2021/11/02 12:54:49;;;;;;;26.23;15.45;;;;;;;10.77;100.00;99560.57;1730555;81;21834;-74
2021/11/02 12:57:58;;;;;;;28.20;15.03;;;;;;;10.77;100.00;99569.63;1754687;81;21303;-74
2021/11/02 13:01:04;;;;;;;32.45;17.07;;;;;;;10.79;100.00;99560.72;1768377;80;21348;-74
2021/11/02 13:04:15;;;;;;;31.45;17.92;;;;;;;10.79;100.00;99557.98;1767709;80;21181;-74
2021/11/02 13:07:21;;;;;;;31.12;19.92;;;;;;;10.81;100.00;99561.88;1763189;81;21307;-74
2021/11/02 13:10:30;;;;;;;33.05;20.65;;;;;;;10.83;100.00;99551.08;1759473;80;21173;-74
2021/11/02 13:13:42;;;;;;;43.28;23.45;;;;;;;10.85;100.00;99562.66;1726348;82;21212;-74
2021/11/02 13:17:10;;;;;;;27.32;15.40;;;;;;;10.87;100.00;99559.72;1767198;80;21320;-73
2021/11/02 13:20:17;;;;;;;31.42;19.35;;;;;;;10.89;100.00;99562.59;1768593;81;21923;-74
2021/11/02 13:23:25;;;;;;;31.93;18.23;;;;;;;10.92;100.00;99559.48;1769181;81;21750;-74
2021/11/02 13:26:31;;;;;;;38.42;22.52;;;;;;;10.92;100.00;99562.21;1760098;81;21760;-74
2021/11/02 13:29:36;;;;;;;34.10;20.00;;;;;;;10.95;100.00;99554.96;1760330;81;21313;-74
2021/11/02 13:32:41;;;;;;;32.13;16.95;;;;;;;10.99;100.00;99556.78;1764626;80;21843;-75
2021/11/02 13:35:55;;;;;;;44.00;23.85;;;;;;;11.02;100.00;99553.66;1745554;81;21364;-74
2021/11/02 13:39:10;;;;;;;41.60;23.02;;;;;;;11.05;100.00;99554.62;1764405;80;21694;-75
2021/11/02 13:42:15;;;;;;;39.85;22.07;;;;;;;11.08;100.00;99554.76;1769719;81;21154;-75
2021/11/02 13:45:23;;;;;;;45.92;24.95;;;;;;;11.11;100.00;99553.85;1763821;81;21644;-74
2021/11/02 13:48:30;;;;;;;60.80;31.77;;;;;;;11.13;100.00;99546.80;1738963;82;21871;-75
2021/11/02 13:51:36;;;;;;;57.73;32.10;;;;;;;11.16;100.00;99546.41;1766352;80;21287;-74
2021/11/02 13:54:42;;;;;;;66.05;34.15;;;;;;;11.18;100.00;99542.41;1766445;80;21661;-74
2021/11/02 13:57:48;;;;;;;56.95;28.23;;;;;;;11.22;100.00;99538.77;1764139;81;21350;-75
2021/11/02 14:00:54;;;;;;;73.17;37.48;;;;;;;11.25;100.00;99539.22;1768513;79;21335;-74
2021/11/02 14:04:15;;;;;;;67.08;33.67;;;;;;;11.28;100.00;99546.17;1768460;81;21283;-74
2021/11/02 14:07:33;;;;;;;61.10;32.53;;;;;;;11.31;100.00;99549.05;1752063;81;21328;-74
2021/11/02 14:10:39;;;;;;;60.92;32.15;;;;;;;11.32;100.00;99548.84;1742670;81;21208;-75
2021/11/02 14:13:55;;;;;;;56.77;29.45;;;;;;;11.33;100.00;99549.16;1744509;81;21192;-75
2021/11/02 14:17:01;;;;;;;50.15;26.42;;;;;;;11.34;100.00;99553.61;1763571;80;21296;-75
2021/11/02 14:20:09;;;;;;;60.33;32.53;;;;;;;11.36;100.00;99554.24;1767294;81;21285;-75
2021/11/02 14:23:26;;;;;;;62.73;33.35;;;;;;;11.39;100.00;99556.59;1760850;81;21816;-74
2021/11/02 14:26:38;;;;;;;56.77;30.65;;;;;;;11.40;100.00;99558.27;1768127;81;21296;-75
2021/11/02 14:29:56;;;;;;;59.05;31.70;;;;;;;11.43;100.00;99555.64;1770444;81;21332;-74
2021/11/02 14:33:02;;;;;;;63.38;35.40;;;;;;;11.44;100.00;99558.20;1769512;81;21305;-74
2021/11/02 14:36:14;;;;;;;68.28;35.90;;;;;;;11.45;100.00;99559.05;1770106;81;21748;-74
2021/11/02 14:39:21;;;;;;;53.78;32.30;;;;;;;11.45;100.00;99559.89;1770163;81;21177;-74
2021/11/02 14:42:57;;;;;;;55.28;31.17;;;;;;;11.46;100.00;99564.31;1768988;81;21807;-75
2021/11/02 14:46:06;;;;;;;58.35;31.82;;;;;;;11.46;100.00;99564.31;1770550;80;21828;-75
2021/11/02 14:49:12;;;;;;;59.42;35.08;;;;;;;11.48;100.00;99567.72;1770742;81;21273;-75
2021/11/02 14:52:18;;;;;;;65.28;35.90;;;;;;;11.49;100.00;99573.51;1770524;81;21327;-74
2021/11/02 14:55:54;;;;;;;68.60;36.98;;;;;;;11.52;100.00;99580.45;1771288;81;21915;-74
2021/11/02 14:59:15;;;;;;;71.60;36.33;;;;;;;11.50;100.00;99580.67;1669863;83;21934;-75
2021/11/02 15:02:19;;;;;;;;;;;;;;;11.52;100.00;99589.52;1773807;81;21288;-75
2021/11/02 15:05:29;;;;;;;52.85;29.00;;;;;;;11.52;100.00;99592.78;1771326;81;20229;-75
2021/11/02 15:08:34;;;;;;;46.05;25.43;;;;;;;11.50;100.00;99605.31;1771004;81;21292;-75
2021/11/02 15:11:39;;;;;;;39.20;23.38;;;;;;;11.45;100.00;99607.81;1769373;81;21871;-75
2021/11/02 15:14:47;;;;;;;43.60;23.25;;;;;;;11.43;100.00;99618.13;1770786;81;21338;-75
2021/11/02 15:17:53;;;;;;;63.00;20.17;;;;;;;11.39;100.00;99627.78;1769464;81;21363;-75
2021/11/02 15:21:03;;;;;;;100.67;23.05;;;;;;;11.35;100.00;99630.59;1784540;80;21347;-75
2021/11/02 15:24:12;;;;;;;30.35;19.82;;;;;;;11.30;100.00;99630.34;1751965;80;21222;-74
2021/11/02 15:27:29;;;;;;;33.58;17.48;;;;;;;11.24;100.00;99642.93;1762191;81;21864;-75
2021/11/02 15:30:35;;;;;;;30.55;17.62;;;;;;;11.15;100.00;99647.34;1767063;81;21371;-75
2021/11/02 15:33:42;;;;;;;38.23;20.90;;;;;;;11.06;100.00;99648.54;1769727;81;21360;-75
2021/11/02 15:36:49;;;;;;;33.08;17.92;;;;;;;11.00;100.00;99657.83;1768491;81;21292;-75
2021/11/02 15:40:02;;;;;;;40.95;19.48;;;;;;;10.96;100.00;99657.92;1762788;80;21340;-75
2021/11/02 15:43:08;;;;;;;29.60;18.05;;;;;;;10.92;100.00;99667.55;1767273;81;21307;-75
2021/11/02 15:46:14;;;;;;;59.38;23.20;;;;;;;10.87;100.00;99671.39;1743990;82;21197;-75
2021/11/02 15:49:20;;;;;;;42.90;22.87;;;;;;;10.81;100.00;99676.25;1736971;82;21177;-75
2021/11/02 15:52:25;;;;;;;63.40;29.82;;;;;;;10.72;100.00;99685.61;1736438;82;21276;-75
2021/11/02 15:55:32;;;;;;;63.02;32.58;;;;;;;10.63;100.00;99697.70;1736928;82;21668;-75
2021/11/02 15:58:38;;;;;;;57.73;29.57;;;;;;;10.58;100.00;99704.27;1737948;82;21185;-75
2021/11/02 16:01:50;;;;;;;43.10;24.95;;;;;;;10.52;100.00;99696.84;1736696;81;21381;-75
2021/11/02 16:05:13;;;;;;;43.25;24.80;;;;;;;10.45;100.00;99708.55;1733573;82;21174;-75
2021/11/02 16:08:24;;;;;;;37.60;21.42;;;;;;;10.38;100.00;99718.53;1752803;82;21320;-75
2021/11/02 16:11:37;;;;;;;35.08;22.52;;;;;;;10.34;100.00;99713.11;1753583;82;21708;-75
2021/11/02 16:14:44;;;;;;;38.25;21.87;;;;;;;10.29;100.00;99716.93;1737194;82;21878;-75
2021/11/02 16:17:57;;;;;;;39.40;22.98;;;;;;;10.26;100.00;99726.02;1752260;82;21185;-75
2021/11/02 16:21:05;;;;;;;39.60;24.95;;;;;;;10.20;100.00;99720.23;1743289;82;21752;-75
2021/11/02 16:24:18;;;;;;;35.52;21.87;;;;;;;10.18;100.00;99733.25;1737426;82;21346;-75
2021/11/02 16:27:28;;;;;;;35.25;21.50;;;;;;;10.17;100.00;99727.98;1737139;82;21891;-75
2021/11/02 16:30:40;;;;;;;42.23;24.00;;;;;;;10.13;100.00;99729.40;1739035;82;21309;-75
2021/11/02 16:33:51;;;;;;;39.20;23.35;;;;;;;10.10;100.00;99728.39;1738872;82;21367;-75
2021/11/02 16:36:58;;;;;;;37.00;23.98;;;;;;;10.05;100.00;99737.15;1739293;82;21872;-75
2021/11/02 16:40:29;;;;;;;43.63;24.70;;;;;;;10.02;100.00;99736.18;1739238;82;21190;-75
2021/11/02 16:43:50;;;;;;;43.05;24.47;;;;;;;9.98;100.00;99738.42;1732604;81;21316;-75
2021/11/02 16:46:56;;;;;;;51.83;26.23;;;;;;;9.94;100.00;99730.27;1729597;82;21193;-75
2021/11/02 16:50:12;;;;;;;47.48;25.68;;;;;;;9.90;100.00;99735.77;1739123;82;21300;-75
2021/11/02 16:53:23;;;;;;;44.53;27.85;;;;;;;9.86;100.00;99727.61;1738265;82;21256;-75
2021/11/02 16:56:32;;;;;;;48.23;25.92;;;;;;;9.85;100.00;99723.19;1738552;82;21312;-75
2021/11/02 17:00:04;;;;;;;45.38;25.27;;;;;;;9.85;100.00;99726.44;1739538;82;21297;-75
2021/11/02 17:03:20;;;;;;;42.38;25.88;;;;;;;9.85;100.00;99723.70;1738061;82;21311;-75
2021/11/02 17:06:37;;;;;;;50.98;27.35;;;;;;;9.81;100.00;99729.20;1739735;82;21280;-75
2021/11/02 17:09:46;;;;;;;53.23;29.07;;;;;;;9.79;100.00;99726.67;1736389;82;21205;-75
2021/11/02 17:13:17;;;;;;;50.55;29.05;;;;;;;9.74;100.00;99727.75;1713330;82;21386;-75
2021/11/02 17:16:27;;;;;;;47.48;26.52;;;;;;;9.71;100.00;99726.73;1738401;82;21295;-75
2021/11/02 17:19:38;;;;;;;46.02;27.10;;;;;;;9.68;100.00;99725.21;1738832;82;21701;-75
2021/11/02 17:22:40;;;;;;;48.50;28.83;;;;;;;9.67;100.00;99732.23;1733894;82;21302;-75
2021/11/02 17:25:46;;;;;;;60.38;33.00;;;;;;;9.66;100.00;99721.83;1736138;82;21295;-75
2021/11/02 17:28:55;;;;;;;58.70;33.02;;;;;;;9.68;100.00;99724.38;1736122;82;21188;-75
2021/11/02 17:32:01;;;;;;;55.88;32.60;;;;;;;9.67;100.00;99737.18;1735209;82;21180;-75
2021/11/02 17:35:08;;;;;;;55.60;30.10;;;;;;;9.67;100.00;99737.18;1735534;82;21287;-75
2021/11/02 17:38:14;;;;;;;58.20;32.40;;;;;;;9.67;100.00;99748.63;1734207;82;21298;-75
2021/11/02 17:41:22;;;;;;;52.35;31.17;;;;;;;9.66;100.00;99749.66;1734054;82;21839;-74
2021/11/02 17:44:28;;;;;;;53.02;29.32;;;;;;;9.65;100.00;99750.18;1735316;82;21339;-75
2021/11/02 17:47:34;;;;;;;49.70;28.38;;;;;;;9.65;100.00;99750.70;1735190;82;21621;-75
2021/11/02 17:50:41;;;;;;;48.13;28.25;;;;;;;9.65;100.00;99754.80;1736573;82;21287;-75
2021/11/02 17:53:46;;;;;;;49.50;28.27;;;;;;;9.61;100.00;99754.83;1734614;82;21401;-75
2021/11/02 17:56:54;;;;;;;52.35;29.98;;;;;;;9.57;100.00;99749.40;1735342;82;21220;-75
2021/11/02 18:00:00;;;;;;;50.48;28.45;;;;;;;9.52;100.00;99751.31;1735427;82;21397;-75
2021/11/02 18:03:07;;;;;;;53.42;28.23;;;;;;;9.51;100.00;99752.34;1735023;82;21315;-75
2021/11/02 18:06:17;;;;;;;54.70;29.10;;;;;;;9.53;100.00;99748.06;1735238;82;21307;-75
2021/11/02 18:09:22;;;;;;;53.20;31.05;;;;;;;9.53;100.00;99754.36;1735859;82;22505;-75
2021/11/02 18:12:31;;;;;;;60.25;32.00;;;;;;;9.53;100.00;99758.98;1733913;82;21180;-75
2021/11/02 18:15:37;;;;;;;54.53;30.17;;;;;;;9.54;100.00;99757.94;1736485;82;21160;-75
2021/11/02 18:18:41;;;;;;;50.12;27.82;;;;;;;9.54;100.00;99764.77;1735546;82;21299;-75
2021/11/02 18:21:48;;;;;;;57.38;30.85;;;;;;;9.55;100.00;99759.63;1736885;81;21731;-75
2021/11/02 18:24:53;;;;;;;50.12;29.57;;;;;;;9.54;100.00;99757.94;1728373;82;21312;-75
2021/11/02 18:28:01;;;;;;;47.43;28.62;;;;;;;9.53;100.00;99760.34;1738697;82;21201;-75
2021/11/02 18:31:07;;;;;;;53.87;29.05;;;;;;;9.51;100.00;99764.63;1739064;82;22748;-75
2021/11/02 18:34:13;;;;;;;46.10;27.40;;;;;;;9.52;100.00;99770.94;1752029;81;22563;-76
2021/11/02 18:37:18;;;;;;;55.33;30.32;;;;;;;9.52;100.00;99766.84;1753534;82;21842;-76
2021/11/02 18:40:26;;;;;;;49.48;29.07;;;;;;;9.50;100.00;99762.06;1752416;82;21204;-75
2021/11/02 18:43:36;;;;;;;52.40;30.40;;;;;;;9.48;100.00;99765.84;1753678;82;22591;-76
2021/11/02 18:46:40;;;;;;;;;;;;;;;9.47;100.00;99776.42;1756376;82;21882;-76
2021/11/02 18:49:46;;;;;;;50.35;28.25;;;;;;;9.42;100.00;99773.40;1753527;82;20302;-76
2021/11/02 18:52:52;;;;;;;46.75;27.93;;;;;;;9.37;100.00;99777.70;1740969;82;21300;-76
2021/11/02 18:55:58;;;;;;;40.58;24.77;;;;;;;9.33;100.00;99774.48;1737862;82;21315;-75
2021/11/02 18:59:05;;;;;;;46.33;28.30;;;;;;;9.32;100.00;99780.98;1738066;82;21303;-75
2021/11/02 19:02:11;;;;;;;42.62;25.80;;;;;;;9.31;100.00;99779.77;1738007;82;21705;-75
2021/11/02 19:05:17;;;;;;;45.65;27.25;;;;;;;9.29;100.00;99781.33;1736916;82;21205;-76
2021/11/02 19:08:25;;;;;;;49.20;29.23;;;;;;;9.26;100.00;99784.92;1739782;82;21217;-76
2021/11/02 19:11:32;;;;;;;47.75;28.77;;;;;;;9.24;100.00;99783.75;1737792;82;21234;-76
2021/11/02 19:14:38;;;;;;;50.08;27.27;;;;;;;9.22;100.00;99777.61;1737480;82;21974;-75
2021/11/02 19:17:43;;;;;;;46.80;28.10;;;;;;;9.21;100.00;99782.22;1737907;82;21347;-76
2021/11/02 19:20:51;;;;;;;46.80;27.75;;;;;;;9.21;100.00;99788.20;1711932;82;21233;-76
2021/11/02 19:23:56;;;;;;;52.65;29.52;;;;;;;9.22;100.00;99795.34;1747705;82;21327;-75